createdAt,value
2019-06-26T00:00:46.607Z,100185.34
2019-06-26T00:05:49.702Z,100183.37
2019-06-26T00:10:53.110Z,100175.44
2019-06-26T00:15:56.240Z,100175.72
2019-06-26T00:21:00.120Z,100169.84
2019-06-26T00:26:03.344Z,100170.31
2019-06-26T00:31:06.813Z,100169.59
2019-06-26T00:36:10.241Z,100165.00
2019-06-26T00:41:13.282Z,100170.91
2019-06-26T00:46:16.911Z,100167.43
2019-06-26T00:51:20.233Z,100171.19
2019-06-26T00:56:23.286Z,100175.41
2019-06-26T01:01:26.444Z,100175.94
2019-06-26T01:06:44.538Z,100173.22
2019-06-26T01:11:47.963Z,100171.19
2019-06-26T01:16:50.910Z,100170.74
2019-06-26T01:21:53.969Z,100172.73
2019-06-26T01:26:57.517Z,100179.28
2019-06-26T01:32:00.554Z,100183.05
2019-06-26T01:37:04.176Z,100171.73
2019-06-26T01:42:07.569Z,100170.28
2019-06-26T01:47:11.001Z,100167.84
2019-06-26T01:52:13.998Z,100167.58
2019-06-26T01:57:17.259Z,100162.45
2019-06-26T02:02:20.302Z,100157.31
2019-06-26T02:07:23.346Z,100156.23
2019-06-26T02:12:27.019Z,100159.53
2019-06-26T02:17:30.319Z,100154.45
2019-06-26T02:22:33.308Z,100147.50
2019-06-26T02:27:42.121Z,100149.94
2019-06-26T02:32:45.560Z,100157.75
2019-06-26T02:37:48.657Z,100157.55
2019-06-26T02:42:52.149Z,100155.09
2019-06-26T02:47:55.532Z,100159.96
2019-06-26T02:52:58.534Z,100151.93
2019-06-26T02:58:01.966Z,100145.53
2019-06-26T03:03:04.966Z,100148.45
2019-06-26T03:08:08.047Z,100145.48
2019-06-26T03:13:11.384Z,100149.22
2019-06-26T03:18:14.532Z,100151.11
2019-06-26T03:23:17.651Z,100153.27
2019-06-26T03:28:20.726Z,100157.58
2019-06-26T03:33:23.674Z,100155.42
2019-06-26T03:38:26.748Z,100159.20
2019-06-26T03:43:30.307Z,100164.59
2019-06-26T03:48:33.496Z,100170.98
2019-06-26T03:53:37.466Z,100169.30
2019-06-26T03:58:40.483Z,100171.66
2019-06-26T04:03:43.604Z,100167.86
2019-06-26T04:08:46.663Z,100171.52
2019-06-26T04:13:49.692Z,100166.63
2019-06-26T04:18:52.886Z,100158.15
2019-06-26T04:23:55.912Z,100157.98
2019-06-26T04:28:59.193Z,100163.02
2019-06-26T04:34:02.715Z,100161.86
2019-06-26T04:39:07.835Z,100161.16
2019-06-26T04:44:11.299Z,100161.53
2019-06-26T04:49:14.315Z,100165.19
2019-06-26T04:54:17.811Z,100168.58
2019-06-26T04:59:21.391Z,100167.23
2019-06-26T05:04:24.470Z,100169.05
2019-06-26T05:09:27.733Z,100171.78
2019-06-26T05:14:31.318Z,100166.05
2019-06-26T05:19:34.388Z,100161.27
2019-06-26T05:24:38.042Z,100162.87
2019-06-26T05:29:41.188Z,100156.27
2019-06-26T05:34:44.351Z,100159.25
2019-06-26T05:39:47.421Z,100158.73
2019-06-26T05:44:50.726Z,100155.17
2019-06-26T05:49:54.215Z,100162.83
2019-06-26T05:54:57.431Z,100166.54
2019-06-26T06:00:00.937Z,100160.58
2019-06-26T06:05:04.489Z,100155.22
2019-06-26T06:10:08.482Z,100151.09
2019-06-26T06:15:13.637Z,100152.42
2019-06-26T06:20:27.937Z,100155.66
2019-06-26T06:25:31.497Z,100161.27
2019-06-26T06:30:34.584Z,100157.34
2019-06-26T06:35:37.863Z,100163.98
2019-06-26T06:40:41.217Z,100167.19
2019-06-26T06:45:44.381Z,100177.19
2019-06-26T06:50:47.693Z,100175.90
2019-06-26T06:55:50.939Z,100174.88
2019-06-26T07:00:54.270Z,100170.48
2019-06-26T07:05:57.431Z,100175.07
2019-06-26T07:11:00.773Z,100175.34
2019-06-26T07:16:03.760Z,100176.28
2019-06-26T07:21:06.841Z,100171.88
2019-06-26T07:26:13.220Z,100167.50
2019-06-26T07:31:15.072Z,100167.03
2019-06-26T07:36:18.077Z,100166.94
2019-06-26T07:41:21.197Z,100157.52
2019-06-26T07:46:24.168Z,100156.83
2019-06-26T07:51:27.305Z,100156.95
2019-06-26T07:56:30.411Z,100145.41
2019-06-26T08:01:33.577Z,100144.32
2019-06-26T08:06:36.566Z,100144.02
2019-06-26T08:11:39.816Z,100140.19
2019-06-26T08:16:43.269Z,100141.59
2019-06-26T08:21:46.920Z,100138.69
2019-06-26T08:26:50.370Z,100132.05
2019-06-26T08:31:53.929Z,100132.31
2019-06-26T08:36:57.182Z,100124.20
2019-06-26T08:42:00.261Z,100121.02
2019-06-26T08:47:04.521Z,100111.72
2019-06-26T08:52:07.687Z,100118.75
2019-06-26T08:57:10.770Z,100114.45
2019-06-26T09:02:13.941Z,100113.71
2019-06-26T09:07:17.016Z,100113.07
2019-06-26T09:12:20.166Z,100111.37
2019-06-26T09:17:23.216Z,100106.94
2019-06-26T09:22:26.758Z,100107.19
2019-06-26T09:27:29.929Z,100101.34
2019-06-26T09:32:33.032Z,100095.40
2019-06-26T09:37:36.160Z,100084.98
2019-06-26T09:42:39.674Z,100092.78
2019-06-26T09:47:42.988Z,100087.89
2019-06-26T09:52:46.114Z,100078.15
2019-06-26T09:57:49.060Z,100077.54
2019-06-26T10:02:52.030Z,100066.32
2019-06-26T10:07:55.412Z,100057.23
2019-06-26T10:12:58.684Z,100057.66
2019-06-26T10:18:01.970Z,100045.40
2019-06-26T10:23:05.216Z,100042.21
2019-06-26T10:28:08.980Z,100030.59
2019-06-26T10:33:12.076Z,100025.98
2019-06-26T10:38:15.580Z,100027.97
2019-06-26T10:43:18.937Z,100002.47
2019-06-26T10:48:21.995Z,99995.92
2019-06-26T10:53:25.649Z,99989.48
2019-06-26T10:58:28.773Z,99985.66
2019-06-26T11:03:31.961Z,99986.02
2019-06-26T11:08:35.622Z,99982.14
2019-06-26T11:13:38.669Z,99984.43
2019-06-26T11:18:41.812Z,99976.11
2019-06-26T11:23:44.876Z,99969.55
2019-06-26T11:28:47.924Z,99971.30
2019-06-26T11:33:51.089Z,99956.95
2019-06-26T11:38:54.162Z,99955.38
2019-06-26T11:43:57.553Z,99948.59
2019-06-26T11:49:00.691Z,99944.45
2019-06-26T11:54:04.086Z,99940.17
2019-06-26T11:59:07.129Z,99931.64
2019-06-26T12:04:10.075Z,99928.48
2019-06-26T12:09:13.442Z,99919.51
2019-06-26T12:14:16.527Z,99914.73
2019-06-26T12:19:23.250Z,99917.13
2019-06-26T12:24:26.541Z,99893.53
2019-06-26T12:29:32.858Z,99888.81
2019-06-26T12:34:35.460Z,99885.72
2019-06-26T12:39:39.081Z,99885.30
2019-06-26T12:44:42.186Z,99878.61
2019-06-26T12:49:45.308Z,99875.30
2019-06-26T12:54:48.265Z,99881.39
2019-06-26T12:59:57.421Z,99865.20
2019-06-26T13:04:57.263Z,99846.14
2019-06-26T13:10:00.632Z,99840.00
2019-06-26T13:15:05.204Z,99843.81
2019-06-26T13:20:10.587Z,99836.05
2019-06-26T13:25:15.937Z,99836.86
2019-06-26T13:30:30.636Z,99831.66
2019-06-26T13:35:33.945Z,99817.60
2019-06-26T13:40:40.831Z,99808.56
2019-06-26T13:45:42.947Z,99802.81
2019-06-26T13:50:46.386Z,99801.86
2019-06-26T13:55:50.091Z,99786.05
2019-06-26T14:00:53.291Z,99792.12
2019-06-26T14:05:56.565Z,99783.62
2019-06-26T14:10:59.929Z,99773.16
2019-06-26T14:16:03.095Z,99775.13
2019-06-26T14:21:06.464Z,99764.24
2019-06-26T14:26:09.533Z,99762.71
2019-06-26T14:31:15.108Z,99750.02
2019-06-26T14:36:18.402Z,99739.07
2019-06-26T14:41:21.621Z,99733.34
2019-06-26T14:46:25.108Z,99729.69
2019-06-26T14:51:42.325Z,99719.83
2019-06-26T14:56:33.835Z,99724.55
2019-06-26T15:01:37.037Z,99723.83
2019-06-26T15:06:40.566Z,99709.30
2019-06-26T15:11:43.905Z,99707.30
2019-06-26T15:16:47.444Z,99719.87
2019-06-26T15:21:58.303Z,99700.32
2019-06-26T15:26:55.576Z,99699.15
2019-06-26T15:31:58.841Z,99689.88
2019-06-26T15:37:02.240Z,99690.45
2019-06-26T15:42:05.492Z,99687.13
2019-06-26T15:47:08.810Z,99689.13
2019-06-26T15:52:15.406Z,99678.19
2019-06-26T15:57:16.599Z,99675.19
2019-06-26T16:02:19.784Z,99663.45
2019-06-26T16:07:23.183Z,99660.13
2019-06-26T16:12:26.444Z,99655.30
2019-06-26T16:17:39.931Z,99660.45
2019-06-26T16:22:43.546Z,99650.83
2019-06-26T16:27:47.113Z,99649.88
2019-06-26T16:32:50.371Z,99645.91
2019-06-26T16:37:53.381Z,99649.36
2019-06-26T16:42:56.389Z,99643.07
2019-06-26T16:47:59.974Z,99643.60
2019-06-26T16:53:03.243Z,99639.75
2019-06-26T16:58:06.387Z,99650.72
2019-06-26T17:03:09.902Z,99646.51
2019-06-26T17:08:13.111Z,99633.70
2019-06-26T17:13:16.194Z,99633.47
2019-06-26T17:18:19.866Z,99632.47
2019-06-26T17:23:22.848Z,99622.25
2019-06-26T17:28:26.442Z,99622.05
2019-06-26T17:33:29.879Z,99626.16
2019-06-26T17:38:34.196Z,99612.30
2019-06-26T17:43:37.306Z,99614.06
2019-06-26T17:48:40.464Z,99605.94
2019-06-26T17:53:44.077Z,99615.59
2019-06-26T17:58:47.116Z,99623.86
2019-06-26T18:03:50.326Z,99624.06
2019-06-26T18:08:53.549Z,99621.13
2019-06-26T18:13:57.029Z,99622.61
2019-06-26T18:19:00.291Z,99619.80
2019-06-26T18:24:03.497Z,99621.97
2019-06-26T18:29:06.627Z,99631.35
2019-06-26T18:34:09.783Z,99626.91
2019-06-26T18:39:13.159Z,99629.38
2019-06-26T18:44:16.357Z,99635.16
2019-06-26T18:49:19.459Z,99635.80
2019-06-26T18:54:22.608Z,99638.00
2019-06-26T18:59:25.698Z,99639.37
2019-06-26T19:04:28.774Z,99639.97
2019-06-26T19:09:31.878Z,99642.95
2019-06-26T19:14:35.030Z,99643.55
2019-06-26T19:19:38.253Z,99646.92
2019-06-26T19:24:41.497Z,99646.28
2019-06-26T19:29:44.936Z,99648.39
2019-06-26T19:34:48.043Z,99648.06
2019-06-26T19:39:51.130Z,99655.67
2019-06-26T19:44:54.585Z,99644.52
2019-06-26T19:49:57.699Z,99644.75
2019-06-26T19:55:00.751Z,99640.18
2019-06-26T20:00:05.215Z,99639.84
2019-06-26T20:05:08.578Z,99640.75
2019-06-26T20:10:14.069Z,99636.55
2019-06-26T20:15:17.287Z,99632.34
2019-06-26T20:20:20.375Z,99625.16
2019-06-26T20:25:23.426Z,99627.87
2019-06-26T20:30:31.754Z,99627.16
2019-06-26T20:35:38.709Z,99617.05
2019-06-26T20:40:45.491Z,99622.23
2019-06-26T20:45:46.877Z,99615.84
2019-06-26T20:50:50.381Z,99617.38
2019-06-26T20:55:53.772Z,99604.52
2019-06-26T21:00:56.820Z,99601.32
2019-06-26T21:06:00.495Z,99600.06
2019-06-26T21:11:03.764Z,99594.23
2019-06-26T21:16:07.244Z,99595.57
2019-06-26T21:21:10.402Z,99592.73
2019-06-26T21:26:13.430Z,99598.79
2019-06-26T21:31:16.597Z,99605.59
2019-06-26T21:36:19.687Z,99597.83
2019-06-26T21:41:22.943Z,99604.37
2019-06-26T21:46:25.981Z,99604.47
2019-06-26T21:51:29.066Z,99603.52
2019-06-26T21:56:32.282Z,99598.73
2019-06-26T22:01:35.674Z,99598.60
2019-06-26T22:06:39.126Z,99586.87
2019-06-26T22:11:42.213Z,99579.17
2019-06-26T22:16:45.452Z,99574.93
2019-06-26T22:21:48.462Z,99572.44
2019-06-26T22:26:51.674Z,99570.59
2019-06-26T22:31:55.202Z,99561.17
2019-06-26T22:36:58.323Z,99558.41
2019-06-26T22:42:01.296Z,99550.06
2019-06-26T22:47:06.399Z,99550.90
2019-06-26T22:52:09.577Z,99538.91
2019-06-26T22:57:13.548Z,99544.67
2019-06-26T23:02:16.774Z,99534.88
2019-06-26T23:07:19.735Z,99543.21
2019-06-26T23:12:22.721Z,99539.29
2019-06-26T23:17:25.761Z,99532.92
2019-06-26T23:22:28.928Z,99526.61
2019-06-26T23:27:31.912Z,99529.67
2019-06-26T23:32:34.939Z,99522.38
2019-06-26T23:37:38.141Z,99526.81
2019-06-26T23:42:41.338Z,99519.91
2019-06-26T23:47:44.847Z,99518.64
2019-06-26T23:52:47.886Z,99517.20
2019-06-26T23:57:59.003Z,99501.41
